Time;durP1;ratioP1;P1;durP2;ratioP2;P2;SDS_P1;SDS_P2;PMS_P1;PMS_P2;Temp;Humidity;BMP_temperature;BMP_pressure;BME280_temperature;BME280_humidity;BME280_pressure;Samples;Min_cycle;Max_cycle;Signal;HPM_P1;HPM_P2
2021/10/26 00:02:26;;;;;;;;;;;;;;;7.37;44.90;97233.79;115808;1197;64595;-83
2021/10/26 00:04:57;;;;;;;5.30;2.70;;;;;;;7.37;45.02;97228.62;115805;1190;29535;-81
2021/10/26 00:07:26;;;;;;;;;;;;;;;7.36;45.15;97225.76;115744;1196;35880;-81
2021/10/26 00:09:56;;;;;;;4.10;2.30;;;;;;;7.31;45.14;97226.20;115643;1197;37255;-81
2021/10/26 00:12:25;;;;;;;;;;;;;;;7.28;45.44;97221.98;115772;1196;27772;-80
2021/10/26 00:14:56;;;;;;;5.70;2.80;;;;;;;7.28;45.35;97227.79;115684;1197;30078;-80
2021/10/26 00:17:26;;;;;;;;;;;;;;;7.29;45.22;97226.63;115699;1197;30489;-81
2021/10/26 00:19:56;;;;;;;5.50;3.10;;;;;;;7.30;45.18;97228.59;115686;1197;29405;-82
2021/10/26 00:22:26;;;;;;;;;;;;;;;7.31;45.24;97233.11;115623;1194;29869;-81
2021/10/26 00:24:57;;;;;;;4.60;2.60;;;;;;;7.28;45.46;97227.58;115743;1197;27633;-80
2021/10/26 00:27:27;;;;;;;3.90;2.40;;;;;;;7.28;45.16;97224.15;115771;1189;28641;-81
2021/10/26 00:29:58;;;;;;;2.80;1.90;;;;;;;7.29;45.38;97232.55;115769;1197;33522;-81
2021/10/26 00:32:27;;;;;;;;;;;;;;;7.29;45.25;97226.21;115794;1197;30353;-81
2021/10/26 00:34:58;;;;;;;6.60;2.30;;;;;;;7.30;45.24;97226.11;115809;1197;30180;-81
2021/10/26 00:37:27;;;;;;;;;;;;;;;7.32;45.36;97228.17;115759;1197;31291;-81
2021/10/26 00:39:58;;;;;;;4.40;2.40;;;;;;;7.31;45.35;97224.82;115722;1197;31488;-81
2021/10/26 00:42:27;;;;;;;;;;;;;;;7.30;45.45;97220.58;115795;1197;28332;-81
2021/10/26 00:44:57;;;;;;;3.30;1.90;;;;;;;7.29;45.45;97218.41;115677;1197;29053;-80
2021/10/26 00:47:26;;;;;;;;;;;;;;;7.30;45.33;97222.86;115720;1197;29961;-81
2021/10/26 00:49:57;;;;;;;3.70;2.30;;;;;;;7.32;45.43;97226.99;115653;1197;27423;-81
2021/10/26 00:52:26;;;;;;;;;;;;;;;7.30;45.31;97230.70;115717;1197;28988;-81
2021/10/26 00:54:58;;;;;;;4.30;2.10;;;;;;;7.30;45.51;97227.49;115638;1192;26738;-80
2021/10/26 00:57:29;;;;;;;3.40;2.20;;;;;;;7.31;45.42;97226.09;115819;1197;27853;-81
2021/10/26 01:00:00;;;;;;;3.90;2.20;;;;;;;7.29;45.40;97223.21;115742;1197;27693;-81
2021/10/26 01:02:31;;;;;;;2.80;2.10;;;;;;;7.27;45.65;97220.19;115753;1196;28971;-82
2021/10/26 01:05:00;;;;;;;;;;;;;;;7.26;45.68;97214.84;115774;1196;29749;-81
2021/10/26 01:07:31;;;;;;;5.00;2.10;;;;;;;7.26;45.55;97205.34;115733;1196;27306;-80
2021/10/26 01:10:03;;;;;;;7.10;2.60;;;;;;;7.26;45.71;97209.88;115771;1197;27917;-81
2021/10/26 01:12:34;;;;;;;5.00;2.40;;;;;;;7.26;45.59;97209.78;115758;1197;28417;-81
2021/10/26 01:15:06;;;;;;;4.90;2.10;;;;;;;7.24;45.64;97212.08;115755;1196;30320;-81
2021/10/26 01:17:37;;;;;;;5.90;2.00;;;;;;;7.21;45.78;97211.19;115783;1197;27202;-81
2021/10/26 01:20:09;;;;;;;3.70;1.60;;;;;;;7.16;45.79;97208.52;115674;1197;30759;-81
2021/10/26 01:22:40;;;;;;;3.00;1.90;;;;;;;7.13;46.11;97206.41;115776;1197;28690;-82
2021/10/26 01:25:13;;;;;;;3.80;2.20;;;;;;;7.13;45.90;97199.92;115797;1197;27698;-81
2021/10/26 01:27:52;;;;;;;5.00;2.00;;;;;;;7.16;46.07;97204.23;115750;1197;29175;-82
2021/10/26 01:30:28;;;;;;;2.80;1.80;;;;;;;7.17;46.06;97205.42;115722;1197;28428;-81
2021/10/26 01:33:00;;;;;;;2.20;1.80;;;;;;;7.17;46.15;97210.54;115771;1197;29173;-81
2021/10/26 01:35:31;;;;;;;3.30;2.00;;;;;;;7.14;46.23;97212.45;115768;1196;26497;-81
2021/10/26 01:38:02;;;;;;;4.00;2.30;;;;;;;7.14;46.16;97204.96;115824;1197;25872;-81
2021/10/26 01:40:33;;;;;;;7.00;2.20;;;;;;;7.20;46.15;97204.20;115779;1197;31072;-82
2021/10/26 01:43:04;;;;;;;3.20;2.00;;;;;;;7.23;46.05;97207.85;115684;1197;30029;-81
2021/10/26 01:45:34;;;;;;;4.50;2.00;;;;;;;7.23;45.91;97214.85;115801;1184;29788;-80
2021/10/26 01:48:07;;;;;;;5.10;2.20;;;;;;;7.23;45.97;97216.08;115747;1197;30961;-81
2021/10/26 01:50:37;;;;;;;4.90;2.10;;;;;;;7.25;45.92;97219.84;115700;1197;29563;-81
2021/10/26 01:53:08;;;;;;;;;;;;;;;7.27;46.02;97226.77;115807;1197;25810;-81
2021/10/26 01:55:40;;;;;;;3.40;1.70;;;;;;;7.22;45.99;97218.90;115718;1197;27964;-81
2021/10/26 01:58:11;;;;;;;4.70;2.00;;;;;;;7.22;45.99;97222.02;115769;1197;28033;-80
2021/10/26 02:00:41;;;;;;;3.90;1.90;;;;;;;7.23;46.16;97222.92;115765;1196;29052;-81
2021/10/26 02:03:10;;;;;;;;;;;;;;;7.22;46.16;97224.65;115685;1197;27985;-81
2021/10/26 02:05:41;;;;;;;7.00;2.40;;;;;;;7.20;46.30;97222.20;115788;1190;27460;-81
2021/10/26 02:08:12;;;;;;;4.40;2.00;;;;;;;7.18;46.43;97223.10;115723;1197;29296;-82
2021/10/26 02:10:43;;;;;;;3.60;1.90;;;;;;;7.16;46.44;97223.38;115727;1197;31417;-78
2021/10/26 02:13:14;;;;;;;;;;;;;;;7.11;46.57;97217.84;115726;1197;28204;-81
2021/10/26 02:15:45;;;;;;;2.80;1.90;;;;;;;7.07;46.73;97220.48;115734;1197;28985;-81
2021/10/26 02:18:15;;;;;;;4.30;2.30;;;;;;;7.05;46.70;97216.55;115815;1189;26943;-81
2021/10/26 02:20:46;;;;;;;4.10;2.00;;;;;;;7.05;46.77;97219.27;115724;1190;35872;-81
2021/10/26 02:23:15;;;;;;;;;;;;;;;7.03;46.90;97221.34;115746;1197;26427;-80
2021/10/26 02:25:46;;;;;;;4.30;2.30;;;;;;;7.00;46.94;97217.97;115858;1197;27109;-81
2021/10/26 02:28:15;;;;;;;;;;;;;;;6.98;47.11;97220.22;115842;1197;29347;-80
2021/10/26 02:30:46;;;;;;;4.50;2.30;;;;;;;6.96;47.15;97216.49;115818;1197;28695;-81
2021/10/26 02:33:17;;;;;;;6.00;2.10;;;;;;;6.93;47.39;97218.15;115843;1197;30170;-81
2021/10/26 02:35:48;;;;;;;6.20;2.40;;;;;;;6.89;47.52;97215.16;115853;1197;25933;-81
2021/10/26 02:38:17;;;;;;;;;;;;;;;6.87;47.68;97221.25;115774;1197;64631;-81
2021/10/26 02:40:48;;;;;;;5.40;1.70;;;;;;;6.82;47.67;97220.34;115824;1197;30285;-81
2021/10/26 02:43:19;;;;;;;5.10;2.70;;;;;;;6.78;47.81;97222.44;115714;1197;28471;-80
2021/10/26 02:45:49;;;;;;;;;;;;;;;6.77;47.87;97219.73;115693;1193;29917;-77
2021/10/26 02:48:20;;;;;;;2.60;1.90;;;;;;;6.76;48.09;97223.91;115727;1197;33684;-77
2021/10/26 02:50:51;;;;;;;4.40;2.00;;;;;;;6.74;48.10;97225.88;115782;1197;35801;-80
2021/10/26 02:53:20;;;;;;;;;;;;;;;6.74;48.07;97225.35;115791;1197;28118;-81
2021/10/26 02:55:51;;;;;;;3.20;2.00;;;;;;;6.71;48.18;97223.40;115798;1197;27642;-79
2021/10/26 02:58:21;;;;;;;5.40;2.40;;;;;;;6.69;48.36;97223.12;115795;1190;28755;-79
2021/10/26 03:00:51;;;;;;;;;;;;;;;6.68;48.58;97227.63;115767;1197;31319;-80
2021/10/26 03:03:21;;;;;;;4.80;1.90;;;;;;;6.62;48.59;97229.48;115712;1197;38366;-80
2021/10/26 03:05:52;;;;;;;4.70;2.60;;;;;;;6.59;49.19;97228.63;115807;1184;28189;-80
2021/10/26 03:08:23;;;;;;;4.50;2.50;;;;;;;6.59;48.86;97227.73;115742;1197;54896;-81
2021/10/26 03:10:54;;;;;;;4.10;2.20;;;;;;;6.61;49.00;97227.98;115729;1196;26268;-81
2021/10/26 03:13:25;;;;;;;6.20;2.40;;;;;;;6.61;49.21;97229.52;115764;1197;30129;-81
2021/10/26 03:15:54;;;;;;;;;;;;;;;6.60;49.19;97226.53;115679;1197;26504;-81
2021/10/26 03:18:25;;;;;;;6.90;2.70;;;;;;;6.59;49.02;97225.83;115666;1197;36867;-81
2021/10/26 03:20:55;;;;;;;;;;;;;;;6.56;49.32;97223.31;115686;1198;31793;-81
2021/10/26 03:23:25;;;;;;;3.30;1.70;;;;;;;6.51;49.46;97219.23;115623;1197;31348;-81
2021/10/26 03:25:56;;;;;;;3.50;2.00;;;;;;;6.52;49.66;97217.92;115741;1197;30933;-80
2021/10/26 03:28:27;;;;;;;;;;;;;;;6.54;49.72;97217.59;115784;1196;25949;-81
2021/10/26 03:31:01;;;;;;;4.50;2.40;;;;;;;6.54;49.73;97219.23;115685;1183;29351;-81
2021/10/26 03:33:32;;;;;;;4.60;2.40;;;;;;;6.57;49.88;97222.27;115741;1197;27553;-81
2021/10/26 03:36:04;;;;;;;5.60;2.50;;;;;;;6.54;50.02;97220.02;115736;1197;29158;-81
2021/10/26 03:38:36;;;;;;;7.80;2.70;;;;;;;6.51;50.04;97227.98;115771;1197;25424;-81
2021/10/26 03:41:06;;;;;;;4.50;2.50;;;;;;;6.51;50.15;97216.45;115684;1197;28465;-81
2021/10/26 03:43:36;;;;;;;;;;;;;;;6.55;50.14;97224.09;115835;1197;27650;-81
2021/10/26 03:46:07;;;;;;;4.90;2.70;;;;;;;6.61;50.02;97225.51;115774;1197;27237;-81
2021/10/26 03:48:37;;;;;;;3.80;2.40;;;;;;;6.61;50.18;97227.73;115749;1197;28758;-81
2021/10/26 03:51:06;;;;;;;;;;;;;;;6.54;50.26;97228.45;115797;1197;27105;-81
2021/10/26 03:53:37;;;;;;;5.40;3.00;;;;;;;6.50;50.33;97222.95;115764;1197;26815;-81
2021/10/26 03:56:06;;;;;;;;;;;;;;;6.47;50.32;97226.06;115783;1197;25017;-81
2021/10/26 03:58:38;;;;;;;4.70;2.70;;;;;;;6.41;50.38;97225.73;115603;1197;86213;-81
2021/10/26 04:01:09;;;;;;;3.30;2.30;;;;;;;6.35;50.63;97228.36;115681;1190;24362;-81
2021/10/26 04:03:40;;;;;;;4.90;2.50;;;;;;;6.31;50.79;97230.66;115653;1197;29159;-81
2021/10/26 04:06:14;;;;;;;5.20;2.40;;;;;;;6.28;50.80;97232.54;115663;1197;29476;-80
2021/10/26 04:08:53;;;;;;;4.40;2.40;;;;;;;6.28;50.60;97226.71;115651;1197;30400;-81
2021/10/26 04:11:25;;;;;;;4.70;2.40;;;;;;;6.31;50.87;97225.50;115650;1190;27772;-80
2021/10/26 04:13:57;;;;;;;5.50;2.90;;;;;;;6.32;50.99;97229.40;115683;1197;29518;-81
2021/10/26 04:16:28;;;;;;;3.70;2.40;;;;;;;6.31;51.05;97231.39;115820;1184;30233;-81
2021/10/26 04:18:57;;;;;;;;;;;;;;;6.26;51.25;97233.67;115765;1197;30364;-80
2021/10/26 04:21:28;;;;;;;4.80;2.40;;;;;;;6.18;51.47;97230.00;115741;1197;34604;-80
2021/10/26 04:24:00;;;;;;;3.10;2.40;;;;;;;6.09;51.57;97221.62;115692;1190;29760;-82
2021/10/26 04:26:32;;;;;;;7.10;3.30;;;;;;;6.07;51.71;97218.01;115831;1197;28380;-82
2021/10/26 04:29:03;;;;;;;4.80;2.50;;;;;;;6.06;51.78;97215.15;115630;1197;29773;-80
2021/10/26 04:31:34;;;;;;;4.80;2.40;;;;;;;6.03;51.55;97218.55;115689;1197;27580;-80
2021/10/26 04:34:05;;;;;;;4.70;2.60;;;;;;;6.02;51.65;97222.20;115744;1197;25677;-80
2021/10/26 04:36:36;;;;;;;6.20;2.90;;;;;;;5.98;51.41;97221.39;115677;1197;29619;-81
2021/10/26 04:39:06;;;;;;;4.70;2.30;;;;;;;5.95;51.44;97218.24;115718;1190;30178;-80
2021/10/26 04:41:35;;;;;;;;;;;;;;;5.91;51.59;97215.98;115765;1197;28156;-80
2021/10/26 04:44:06;;;;;;;3.90;2.20;;;;;;;5.90;51.67;97216.83;115769;1197;34086;-82
2021/10/26 04:46:37;;;;;;;4.00;2.50;;;;;;;5.88;51.82;97223.61;115731;1189;32559;-80
2021/10/26 04:49:08;;;;;;;4.20;2.50;;;;;;;5.86;51.95;97221.60;115723;1197;26389;-81
2021/10/26 04:51:41;;;;;;;6.60;2.70;;;;;;;5.86;52.19;97224.49;115658;1197;28767;-80
2021/10/26 04:54:12;;;;;;;4.10;2.30;;;;;;;5.84;52.36;97223.73;115732;1195;46005;-81
2021/10/26 04:56:43;;;;;;;4.70;2.60;;;;;;;5.87;52.48;97229.89;115725;1197;31277;-81
2021/10/26 04:59:14;;;;;;;3.40;2.20;;;;;;;5.86;52.61;97225.30;115793;1197;26605;-81
2021/10/26 05:01:43;;;;;;;;;;;;;;;5.87;52.67;97225.89;115806;1197;23357;-81
2021/10/26 05:04:14;;;;;;;3.30;2.20;;;;;;;5.86;52.89;97224.23;115749;1197;71304;-81
2021/10/26 05:06:43;;;;;;;;;;;;;;;5.79;52.94;97228.36;115770;1197;28057;-80
2021/10/26 05:09:13;;;;;;;4.70;2.60;;;;;;;5.67;53.11;97230.73;115757;1197;33957;-81
2021/10/26 05:11:44;;;;;;;5.30;2.60;;;;;;;5.58;53.17;97235.80;115744;1197;25814;-82
2021/10/26 05:14:13;;;;;;;;;;;;;;;5.55;53.15;97238.74;115728;1197;27302;-81
2021/10/26 05:16:45;;;;;;;5.60;3.00;;;;;;;5.52;53.41;97235.16;115708;1190;70964;-81
2021/10/26 05:19:17;;;;;;;3.30;2.50;;;;;;;5.49;53.50;97239.23;115724;1197;30123;-81
2021/10/26 05:21:48;;;;;;;5.50;2.10;;;;;;;5.51;53.42;97233.14;115784;1197;25223;-81
2021/10/26 05:24:19;;;;;;;5.40;2.80;;;;;;;5.52;53.51;97238.64;115808;1197;27864;-80
2021/10/26 05:26:50;;;;;;;7.00;2.70;;;;;;;5.50;53.64;97239.38;115702;1197;42422;-80
2021/10/26 05:29:21;;;;;;;5.00;2.40;;;;;;;5.48;53.65;97245.89;115711;1197;28460;-78
2021/10/26 05:31:51;;;;;;;7.10;2.70;;;;;;;5.46;53.89;97244.23;115767;1197;28684;-80
2021/10/26 05:34:24;;;;;;;5.40;2.60;;;;;;;5.44;53.94;97245.02;115691;1197;32491;-80
2021/10/26 05:36:55;;;;;;;5.10;2.50;;;;;;;5.45;54.12;97246.46;115717;1197;31865;-81
2021/10/26 05:39:24;;;;;;;;;;;;;;;5.46;54.22;97249.64;115710;1195;33012;-80
2021/10/26 05:41:56;;;;;;;3.80;2.60;;;;;;;5.58;54.40;97243.38;115688;1194;25283;-80
2021/10/26 05:44:28;;;;;;;4.90;2.80;;;;;;;6.12;54.44;97246.14;115654;1197;34145;-80
2021/10/26 05:46:58;;;;;;;5.20;2.90;;;;;;;6.83;53.50;97246.80;115792;1197;28284;-80
2021/10/26 05:49:30;;;;;;;5.00;2.50;;;;;;;7.49;52.58;97250.58;115752;1189;29731;-81
2021/10/26 05:52:01;;;;;;;6.10;2.70;;;;;;;7.75;51.96;97252.56;115744;1197;30018;-80
2021/10/26 05:54:32;;;;;;;4.90;2.50;;;;;;;7.95;51.51;97246.21;115717;1197;60090;-80
2021/10/26 05:57:03;;;;;;;4.30;2.60;;;;;;;8.18;50.74;97246.77;115721;1197;45707;-82
2021/10/26 05:59:34;;;;;;;6.70;2.70;;;;;;;8.28;50.30;97253.38;115647;1198;30719;-81
2021/10/26 06:02:03;;;;;;;;;;;;;;;8.56;50.18;97254.54;115685;1197;23992;-81
2021/10/26 06:04:34;;;;;;;5.70;2.90;;;;;;;8.88;49.44;97252.26;115727;1197;28424;-81
2021/10/26 06:07:03;;;;;;;;;;;;;;;9.17;48.98;97256.84;115731;1197;25160;-82
2021/10/26 06:09:35;;;;;;;6.00;2.70;;;;;;;9.49;48.52;97256.27;115699;1197;28792;-83
2021/10/26 06:12:10;;;;;;;4.60;2.50;;;;;;;9.57;47.91;97257.01;115723;1190;28435;-82
2021/10/26 06:14:42;;;;;;;5.90;3.00;;;;;;;9.42;48.00;97265.58;115721;1197;28422;-81
2021/10/26 06:17:24;;;;;;;4.20;2.70;;;;;;;9.97;47.96;97267.29;115669;1197;42184;-81
2021/10/26 06:19:55;;;;;;;8.20;2.80;;;;;;;10.56;47.52;97267.33;115730;1197;29276;-80
2021/10/26 06:22:24;;;;;;;;;;;;;;;10.66;46.65;97272.91;115769;1190;28092;-81
2021/10/26 06:24:54;;;;;;;4.00;2.50;;;;;;;10.66;46.67;97275.14;115714;1190;29521;-80
2021/10/26 06:27:24;;;;;;;;;;;;;;;10.83;46.36;97278.15;115701;1197;26060;-80
2021/10/26 06:29:55;;;;;;;6.50;2.50;;;;;;;11.15;46.59;97278.98;115744;1197;26285;-81
2021/10/26 06:32:26;;;;;;;7.10;2.80;;;;;;;11.37;46.07;97289.43;115620;1197;28477;-81
2021/10/26 06:34:57;;;;;;;5.10;2.70;;;;;;;11.21;45.28;97291.45;115783;1197;25275;-81
2021/10/26 06:37:27;;;;;;;;;;;;;;;11.01;45.32;97286.09;115676;1197;26677;-81
2021/10/26 06:39:58;;;;;;;5.20;2.70;;;;;;;11.29;45.15;97282.27;115598;1197;26386;-82
2021/10/26 06:42:27;;;;;;;;;;;;;;;11.35;44.55;97283.01;115701;1197;28827;-81
2021/10/26 06:44:58;;;;;;;7.40;3.00;;;;;;;11.29;44.69;97275.75;115720;1197;26305;-81
2021/10/26 06:47:27;;;;;;;;;;;;;;;11.17;44.31;97275.26;115711;1197;29893;-81
2021/10/26 06:49:58;;;;;;;4.60;2.40;;;;;;;11.04;45.19;97276.11;115650;1174;28415;-80
2021/10/26 06:52:27;;;;;;;;;;;;;;;11.66;44.66;97278.20;115660;1197;30585;-81
2021/10/26 06:54:58;;;;;;;6.30;3.40;;;;;;;11.71;44.10;97281.06;115748;1197;30956;-81
2021/10/26 06:57:29;;;;;;;4.90;3.00;;;;;;;11.85;43.82;97280.20;115650;1197;30275;-80
2021/10/26 07:00:00;;;;;;;5.40;2.90;;;;;;;12.18;44.03;97285.74;115666;1197;28587;-81
2021/10/26 07:02:29;;;;;;;;;;;;;;;12.41;43.34;97286.36;115736;1197;32864;-80
2021/10/26 07:05:05;;;;;;;5.20;2.90;;;;;;;12.23;43.44;97293.87;115640;1197;25759;-81
2021/10/26 07:07:36;;;;;;;6.30;3.50;;;;;;;12.02;43.09;97294.71;115751;1197;65246;-81
2021/10/26 07:10:08;;;;;;;5.70;3.20;;;;;;;11.75;43.22;97295.31;115687;1197;28211;-81
2021/10/26 07:12:38;;;;;;;5.10;2.90;;;;;;;11.52;43.85;97300.25;115645;1197;29322;-80
2021/10/26 07:15:11;;;;;;;7.50;3.20;;;;;;;11.45;43.94;97298.46;115700;1197;29527;-81
2021/10/26 07:17:43;;;;;;;7.50;3.40;;;;;;;11.31;44.19;97298.83;115632;1197;28471;-81
2021/10/26 07:20:17;;;;;;;7.10;3.20;;;;;;;11.13;44.36;97301.00;115719;1197;29123;-80
2021/10/26 07:22:54;;;;;;;4.60;3.20;;;;;;;10.89;44.56;97297.09;115801;1196;25753;-81
2021/10/26 07:25:25;;;;;;;7.80;3.10;;;;;;;10.68;44.89;97295.95;115719;1197;26759;-80
2021/10/26 07:27:58;;;;;;;5.70;3.10;;;;;;;10.63;45.03;97293.86;115699;1197;29648;-80
2021/10/26 07:30:32;;;;;;;4.90;2.60;;;;;;;10.57;45.34;97292.63;115650;1197;26532;-81
2021/10/26 07:33:07;;;;;;;6.10;3.30;;;;;;;10.50;45.44;97291.75;115636;1193;27683;-80
2021/10/26 07:35:41;;;;;;;5.30;2.70;;;;;;;10.31;45.73;97291.64;115730;1197;26893;-81
2021/10/26 07:38:14;;;;;;;6.00;3.10;;;;;;;10.41;46.15;97290.18;115666;1197;26253;-81
2021/10/26 07:40:45;;;;;;;5.80;2.80;;;;;;;10.65;45.74;97293.70;115692;1197;29536;-80
2021/10/26 07:43:16;;;;;;;5.20;3.20;;;;;;;10.82;45.69;97292.21;115800;1197;26782;-81
2021/10/26 07:45:47;;;;;;;4.80;3.20;;;;;;;10.90;45.61;97294.83;115789;1197;25119;-81
2021/10/26 07:48:18;;;;;;;5.80;3.00;;;;;;;11.02;45.57;97294.26;115807;1197;27512;-81
2021/10/26 07:50:48;;;;;;;7.00;2.80;;;;;;;10.84;45.15;97290.30;115755;1197;29489;-81
2021/10/26 07:53:19;;;;;;;6.00;3.10;;;;;;;10.57;45.61;97295.70;115771;1197;29800;-81
2021/10/26 07:55:51;;;;;;;7.20;3.00;;;;;;;10.44;45.91;97295.50;115726;1197;29303;-81
2021/10/26 07:58:22;;;;;;;5.00;3.00;;;;;;;10.35;45.95;97297.00;115732;1197;28445;-80
2021/10/26 08:00:54;;;;;;;5.10;2.80;;;;;;;10.36;46.40;97296.16;115701;1197;28024;-80
2021/10/26 08:03:25;;;;;;;5.90;3.40;;;;;;;10.34;46.30;97297.63;115653;1190;31350;-80
2021/10/26 08:05:56;;;;;;;5.10;3.30;;;;;;;10.29;46.41;97297.20;115734;1197;26945;-81
2021/10/26 08:08:27;;;;;;;6.20;3.10;;;;;;;10.27;46.52;97296.75;115757;1196;29758;-80
2021/10/26 08:10:58;;;;;;;4.70;3.00;;;;;;;10.37;46.75;97297.06;115680;1197;30709;-80
2021/10/26 08:13:28;;;;;;;7.10;3.50;;;;;;;10.61;46.92;97297.77;115672;1197;30111;-81
2021/10/26 08:15:59;;;;;;;8.30;3.40;;;;;;;10.70;46.30;97296.63;115720;1197;32242;-80
2021/10/26 08:18:30;;;;;;;;;;;;;;;10.71;46.45;97304.27;115688;1191;71352;-81
2021/10/26 08:20:59;;;;;;;;;;;;;;;10.87;46.57;97296.56;115664;1197;31846;-81
2021/10/26 08:23:29;;;;;;;7.50;3.90;;;;;;;11.01;46.41;97297.74;115698;1197;32121;-81
2021/10/26 08:26:01;;;;;;;5.00;3.20;;;;;;;11.13;46.05;97297.45;115708;1197;31546;-81
2021/10/26 08:28:33;;;;;;;6.20;3.50;;;;;;;11.15;45.91;97295.17;115745;1197;28742;-80
2021/10/26 08:31:07;;;;;;;5.50;3.50;;;;;;;11.21;46.20;97293.57;115716;1197;29764;-80
2021/10/26 08:33:51;;;;;;;7.00;3.60;;;;;;;11.23;46.12;97290.65;115649;1196;27814;-81
2021/10/26 08:36:21;;;;;;;5.50;3.00;;;;;;;11.24;46.02;97284.96;115730;1197;34156;-81
2021/10/26 08:38:52;;;;;;;6.20;3.10;;;;;;;11.27;46.13;97284.02;115692;1197;31199;-80
2021/10/26 08:41:23;;;;;;;;;;;;;;;11.09;45.56;97282.21;115663;1197;44557;-81
2021/10/26 08:43:54;;;;;;;4.80;2.80;;;;;;;10.94;45.83;97283.73;115725;1197;31185;-80
2021/10/26 08:46:26;;;;;;;6.10;3.20;;;;;;;10.81;46.04;97283.08;115675;1197;32630;-81
2021/10/26 08:48:57;;;;;;;5.80;3.10;;;;;;;10.76;46.15;97280.16;115675;1197;28170;-81
2021/10/26 08:51:29;;;;;;;5.90;3.30;;;;;;;10.68;46.27;97284.59;115729;1197;29521;-80
2021/10/26 08:53:59;;;;;;;6.10;3.40;;;;;;;10.67;46.47;97283.20;115702;1197;33760;-82
2021/10/26 08:56:30;;;;;;;4.90;2.90;;;;;;;10.64;46.40;97284.57;115681;1197;30963;-81
2021/10/26 08:59:01;;;;;;;7.30;3.30;;;;;;;10.71;46.75;97282.53;115684;1197;29338;-81
2021/10/26 09:01:32;;;;;;;8.10;3.20;;;;;;;10.79;46.69;97283.61;115680;1197;25108;-81
2021/10/26 09:04:11;;;;;;;6.30;3.10;;;;;;;10.84;46.81;97280.97;115665;1197;31985;-81
2021/10/26 09:06:51;;;;;;;6.10;2.90;;;;;;;10.96;46.89;97285.70;115636;1197;30284;-81
2021/10/26 09:09:23;;;;;;;6.10;3.40;;;;;;;11.03;46.88;97286.56;115635;1190;29800;-80
2021/10/26 09:17:34;;;;;;;6.70;3.20;;;;;;;11.26;46.59;97293.05;115688;1197;27480;-81
2021/10/26 09:20:06;;;;;;;5.80;3.20;;;;;;;11.27;46.41;97294.06;115658;1197;25523;-81
2021/10/26 09:22:50;;;;;;;6.40;3.50;;;;;;;11.30;46.42;97291.41;115741;1190;30555;-82
2021/10/26 09:25:22;;;;;;;5.40;3.00;;;;;;;11.36;46.25;97287.30;115729;1191;25501;-81
2021/10/26 09:27:52;;;;;;;5.50;2.90;;;;;;;11.45;46.50;97285.88;115681;1197;26610;-81
2021/10/26 09:30:22;;;;;;;;;;;;;;;11.50;46.12;97283.42;115673;1197;58989;-81
2021/10/26 09:32:55;;;;;;;5.60;3.20;;;;;;;11.44;46.07;97282.38;115702;1197;29170;-81
2021/10/26 09:35:27;;;;;;;5.70;3.50;;;;;;;11.27;46.06;97280.73;115654;1190;42848;-81
2021/10/26 09:38:00;;;;;;;4.90;3.40;;;;;;;11.32;46.54;97273.14;115682;1197;26963;-81
2021/10/26 09:40:43;;;;;;;5.80;3.40;;;;;;;11.38;46.29;97278.60;115613;1197;35456;-82
2021/10/26 09:43:14;;;;;;;6.70;3.00;;;;;;;11.30;46.25;97272.14;115689;1197;57248;-81
2021/10/26 09:45:45;;;;;;;5.90;3.20;;;;;;;11.43;46.66;97271.65;115636;1197;32655;-82
2021/10/26 09:48:20;;;;;;;7.40;3.90;;;;;;;11.46;46.34;97271.06;115689;1197;26346;-81
2021/10/26 09:51:01;;;;;;;6.10;3.70;;;;;;;11.53;46.48;97267.11;115769;1190;26708;-81
2021/10/26 09:53:34;;;;;;;;;;;;;;;11.64;46.11;97270.66;115689;1191;41730;-81
2021/10/26 09:56:12;;;;;;;6.60;3.00;;;;;;;11.65;46.05;97270.87;115663;1197;31312;-83
2021/10/26 09:58:42;;;;;;;7.40;3.70;;;;;;;11.74;46.02;97271.17;115596;1197;33958;-81
2021/10/26 10:01:13;;;;;;;7.90;3.80;;;;;;;11.88;45.84;97269.21;115722;1196;30452;-81
2021/10/26 10:03:44;;;;;;;6.30;3.50;;;;;;;11.94;45.84;97266.05;115640;1190;36740;-82
2021/10/26 10:06:15;;;;;;;5.70;3.60;;;;;;;12.05;45.60;97269.52;115677;1197;27759;-82
2021/10/26 10:08:44;;;;;;;;;;;;;;;12.06;45.35;97267.13;115803;1197;27094;-82
2021/10/26 10:11:19;;;;;;;8.10;3.70;;;;;;;12.14;45.53;97265.41;115662;1197;27765;-82
2021/10/26 10:13:54;;;;;;;5.50;3.30;;;;;;;12.25;45.58;97264.14;115740;1190;26486;-82
2021/10/26 10:16:26;;;;;;;7.00;4.00;;;;;;;12.26;45.52;97255.86;115698;1197;33834;-82
2021/10/26 10:18:58;;;;;;;5.80;2.90;;;;;;;12.36;45.81;97253.61;115677;1197;26109;-82
2021/10/26 10:21:30;;;;;;;8.20;3.80;;;;;;;12.42;45.35;97244.34;115651;1197;31193;-82
2021/10/26 10:24:03;;;;;;;8.60;3.50;;;;;;;12.42;45.12;97244.34;115643;1197;38515;-82
2021/10/26 10:26:35;;;;;;;5.20;3.40;;;;;;;12.40;44.99;97240.94;115673;1197;26752;-82
2021/10/26 10:29:07;;;;;;;5.10;3.10;;;;;;;12.47;45.44;97236.54;115631;1197;28300;-82
2021/10/26 10:31:38;;;;;;;6.90;3.80;;;;;;;12.63;45.16;97237.67;115660;1197;29288;-82
2021/10/26 10:34:10;;;;;;;7.70;3.60;;;;;;;12.68;45.02;97229.83;115716;1197;26108;-82
2021/10/26 10:36:42;;;;;;;7.00;3.50;;;;;;;12.69;45.00;97228.16;115660;1196;29650;-82
2021/10/26 10:39:14;;;;;;;9.50;3.70;;;;;;;12.74;44.82;97227.18;115681;1190;27566;-82
2021/10/26 10:41:46;;;;;;;5.80;3.30;;;;;;;12.68;44.70;97221.46;115719;1197;26875;-82
2021/10/26 10:44:39;;;;;;;7.90;3.50;;;;;;;12.68;44.61;97220.24;115725;1197;44769;-82
2021/10/26 10:47:30;;;;;;;6.60;3.20;;;;;;;12.81;44.94;97214.77;115684;1197;29421;-82
2021/10/26 10:50:02;;;;;;;5.10;3.30;;;;;;;12.91;44.43;97212.73;115626;1197;25845;-81
2021/10/26 10:52:35;;;;;;;5.40;3.50;;;;;;;12.95;44.71;97205.14;115669;1197;36128;-81
2021/10/26 10:55:24;;;;;;;5.30;3.00;;;;;;;13.05;44.68;97202.23;115677;1197;28358;-82
2021/10/26 10:57:55;;;;;;;6.00;3.50;;;;;;;13.13;44.36;97203.42;115665;1197;28261;-81
2021/10/26 11:00:28;;;;;;;8.70;3.90;;;;;;;13.14;44.19;97192.97;115705;1197;25575;-83
2021/10/26 11:03:00;;;;;;;6.80;3.90;;;;;;;13.16;44.10;97188.09;115683;1197;33360;-83
2021/10/26 11:05:43;;;;;;;7.70;4.10;;;;;;;13.17;44.15;97184.89;115665;1190;29861;-82
2021/10/26 11:08:15;;;;;;;7.30;3.90;;;;;;;13.23;44.37;97184.98;115634;1197;26361;-82
2021/10/26 11:11:02;;;;;;;8.20;4.20;;;;;;;13.23;43.98;97187.48;115762;1197;30230;-83
2021/10/26 11:13:36;;;;;;;6.80;4.00;;;;;;;13.21;43.87;97181.67;115702;1190;29707;-83
2021/10/26 11:16:09;;;;;;;6.70;3.50;;;;;;;13.21;43.70;97181.52;115652;1197;41338;-83
2021/10/26 11:18:44;;;;;;;7.50;4.20;;;;;;;13.21;43.61;97183.88;115608;1198;27006;-83
2021/10/26 11:21:37;;;;;;;6.30;3.20;;;;;;;13.26;43.69;97182.81;115681;1197;29588;-83
2021/10/26 11:24:09;;;;;;;6.70;3.50;;;;;;;13.42;43.59;97173.55;115699;1197;26832;-83
2021/10/26 11:26:42;;;;;;;7.80;3.70;;;;;;;13.58;43.63;97175.83;115626;1197;29571;-83
2021/10/26 11:29:15;;;;;;;5.80;3.50;;;;;;;13.72;43.33;97170.83;115622;1197;30377;-83
2021/10/26 11:31:48;;;;;;;4.80;3.10;;;;;;;13.89;42.83;97165.60;115689;1197;26240;-83
2021/10/26 11:34:23;;;;;;;5.80;3.00;;;;;;;14.01;42.51;97160.34;115702;1197;29717;-83
2021/10/26 11:37:06;;;;;;;6.10;3.00;;;;;;;14.06;41.63;97156.16;115694;1190;29675;-82
2021/10/26 11:39:38;;;;;;;4.50;2.80;;;;;;;13.99;41.66;97153.02;115668;1197;28102;-83
2021/10/26 11:42:16;;;;;;;5.30;3.00;;;;;;;13.89;41.55;97154.84;115656;1197;36620;-83
2021/10/26 11:44:47;;;;;;;5.60;3.00;;;;;;;13.80;41.59;97151.60;115723;1197;25871;-83
2021/10/26 11:47:18;;;;;;;4.90;2.80;;;;;;;13.70;41.52;97150.70;115669;1197;48313;-83
2021/10/26 11:49:48;;;;;;;7.10;3.10;;;;;;;13.65;41.82;97140.96;115715;1196;28305;-83
2021/10/26 11:52:20;;;;;;;5.90;2.50;;;;;;;13.62;41.16;97143.86;115788;1197;40754;-83
2021/10/26 11:54:53;;;;;;;7.10;3.20;;;;;;;13.58;41.15;97144.89;115746;1197;27409;-82
2021/10/26 11:57:23;;;;;;;4.00;2.80;;;;;;;13.58;41.28;97135.17;115662;1197;27069;-83
2021/10/26 12:00:05;;;;;;;3.70;2.50;;;;;;;13.62;41.61;97133.31;115700;1197;24375;-82
2021/10/26 12:02:39;;;;;;;4.40;2.70;;;;;;;13.68;41.34;97135.02;115683;1197;26205;-83
2021/10/26 12:05:19;;;;;;;6.30;3.00;;;;;;;13.72;41.17;97139.23;115628;1197;24237;-82
2021/10/26 12:07:51;;;;;;;5.60;2.70;;;;;;;13.74;41.30;97135.15;115761;1197;24487;-80
2021/10/26 12:10:24;;;;;;;4.70;2.40;;;;;;;13.85;41.45;97133.20;115578;1197;27864;-81